LFRV/VNE METAR and TAF weather

Enter ICAO airport designator
Station Type Date Time Source
LFRV METAR 2020/11/28 20:30 UTC NOAA

LFRV 282030Z AUTO 06010KT CAVOK 09/07 Q1015


Station Type Date Time Source
LFRV Decoded METAR 2020/11/28 20:30 UTC NOAA

Station name not available
Nov 28, 2020 - 03:30 PM EST / 2020.11.28 2030 UTC
Wind: from the ENE (060 degrees) at 12 MPH (10 KT):0
Visibility: greater than 7 mile(s):0
Temperature: 48 F (9 C)
Dew Point: 44 F (7 C)
Relative Humidity: 87%
Pressure (altimeter): 29.97 in. Hg (1015 hPa)
ob: LFRV 282030Z AUTO 06010KT CAVOK 09/07 Q1015
cycle: 20

Station Type Date Time Source
LFRV TAF UTC NOAA

Error!

Example: see airport list